sensor_id;sensor_type;location;lat;lon;timestamp;temperature;humidity
736;DHT22;352;48.626;9.238;2022-08-03T00:13:21;20.00;99.90
736;DHT22;352;48.626;9.238;2022-08-03T00:28:04;20.00;99.90
736;DHT22;352;48.626;9.238;2022-08-03T00:30:33;19.90;99.90
736;DHT22;352;48.626;9.238;2022-08-03T00:35:28;19.80;99.90
736;DHT22;352;48.626;9.238;2022-08-03T00:42:51;19.80;99.90
736;DHT22;352;48.626;9.238;2022-08-03T00:45:19;19.80;99.90
736;DHT22;352;48.626;9.238;2022-08-03T00:47:48;19.70;99.90
736;DHT22;352;48.626;9.238;2022-08-03T00:50:16;19.70;99.90
736;DHT22;352;48.626;9.238;2022-08-03T01:00:07;19.70;99.90
736;DHT22;352;48.626;9.238;2022-08-03T01:05:03;19.60;99.90
736;DHT22;352;48.626;9.238;2022-08-03T01:07:40;19.60;99.90
736;DHT22;352;48.626;9.238;2022-08-03T01:10:13;19.50;99.90
736;DHT22;352;48.626;9.238;2022-08-03T01:12:50;19.10;99.90
736;DHT22;352;48.626;9.238;2022-08-03T01:17:56;19.40;99.90
736;DHT22;352;48.626;9.238;2022-08-03T01:20:30;19.40;99.90
736;DHT22;352;48.626;9.238;2022-08-03T01:23:34;19.30;99.90
736;DHT22;352;48.626;9.238;2022-08-03T01:26:12;19.30;99.90
736;DHT22;352;48.626;9.238;2022-08-03T01:29:00;19.30;99.90
736;DHT22;352;48.626;9.238;2022-08-03T01:31:36;19.20;99.90
736;DHT22;352;48.626;9.238;2022-08-03T01:34:06;19.20;99.90
736;DHT22;352;48.626;9.238;2022-08-03T01:36:37;19.20;99.90
736;DHT22;352;48.626;9.238;2022-08-03T01:39:05;19.10;99.90
736;DHT22;352;48.626;9.238;2022-08-03T01:41:38;19.10;99.90
736;DHT22;352;48.626;9.238;2022-08-03T01:44:08;19.10;99.90
736;DHT22;352;48.626;9.238;2022-08-03T01:46:37;18.90;99.90
736;DHT22;352;48.626;9.238;2022-08-03T01:49:06;19.00;99.90
736;DHT22;352;48.626;9.238;2022-08-03T01:56:28;19.00;99.90
736;DHT22;352;48.626;9.238;2022-08-03T02:01:24;18.90;99.90
736;DHT22;352;48.626;9.238;2022-08-03T02:03:54;18.90;99.90
736;DHT22;352;48.626;9.238;2022-08-03T02:06:23;18.80;99.90
736;DHT22;352;48.626;9.238;2022-08-03T02:08:51;18.80;99.90
736;DHT22;352;48.626;9.238;2022-08-03T02:13:47;18.80;99.90
736;DHT22;352;48.626;9.238;2022-08-03T02:16:17;18.80;99.90
736;DHT22;352;48.626;9.238;2022-08-03T02:18:45;18.90;99.90
736;DHT22;352;48.626;9.238;2022-08-03T02:28:42;18.70;99.90
736;DHT22;352;48.626;9.238;2022-08-03T02:31:13;18.70;99.90
736;DHT22;352;48.626;9.238;2022-08-03T02:33:43;18.70;99.90
736;DHT22;352;48.626;9.238;2022-08-03T02:36:15;18.60;99.90
736;DHT22;352;48.626;9.238;2022-08-03T02:41:19;18.60;99.90
736;DHT22;352;48.626;9.238;2022-08-03T02:43:48;18.60;99.90
736;DHT22;352;48.626;9.238;2022-08-03T02:46:17;18.60;99.90
736;DHT22;352;48.626;9.238;2022-08-03T02:48:45;18.60;99.90
736;DHT22;352;48.626;9.238;2022-08-03T02:51:16;18.60;99.90
736;DHT22;352;48.626;9.238;2022-08-03T02:53:45;18.60;99.90
736;DHT22;352;48.626;9.238;2022-08-03T02:56:13;18.60;99.90
736;DHT22;352;48.626;9.238;2022-08-03T03:03:39;18.50;99.90
736;DHT22;352;48.626;9.238;2022-08-03T03:06:07;18.50;99.90
736;DHT22;352;48.626;9.238;2022-08-03T03:08:36;18.50;99.90
736;DHT22;352;48.626;9.238;2022-08-03T03:15:59;18.50;99.90
736;DHT22;352;48.626;9.238;2022-08-03T03:18:27;18.40;99.90
736;DHT22;352;48.626;9.238;2022-08-03T03:20:55;19.10;99.90
736;DHT22;352;48.626;9.238;2022-08-03T03:23:24;18.40;99.90
736;DHT22;352;48.626;9.238;2022-08-03T03:25:53;18.30;99.90
736;DHT22;352;48.626;9.238;2022-08-03T03:43:08;18.20;99.90
736;DHT22;352;48.626;9.238;2022-08-03T03:48:03;18.10;99.90
736;DHT22;352;48.626;9.238;2022-08-03T03:50:31;18.10;99.90
736;DHT22;352;48.626;9.238;2022-08-03T04:00:22;18.00;99.90
736;DHT22;352;48.626;9.238;2022-08-03T04:08:02;16.90;99.90
736;DHT22;352;48.626;9.238;2022-08-03T04:10:55;18.00;99.90
736;DHT22;352;48.626;9.238;2022-08-03T04:13:27;18.00;99.90
736;DHT22;352;48.626;9.238;2022-08-03T04:18:25;18.00;99.90
736;DHT22;352;48.626;9.238;2022-08-03T04:20:54;18.00;99.90
736;DHT22;352;48.626;9.238;2022-08-03T04:23:24;18.00;99.90
736;DHT22;352;48.626;9.238;2022-08-03T04:25:53;18.00;99.90
736;DHT22;352;48.626;9.238;2022-08-03T04:28:22;18.00;99.90
736;DHT22;352;48.626;9.238;2022-08-03T04:30:50;18.00;99.90
736;DHT22;352;48.626;9.238;2022-08-03T04:33:20;18.10;99.90
736;DHT22;352;48.626;9.238;2022-08-03T04:35:51;18.10;99.90
736;DHT22;352;48.626;9.238;2022-08-03T04:38:21;18.10;99.90
736;DHT22;352;48.626;9.238;2022-08-03T04:40:51;18.20;99.90
736;DHT22;352;48.626;9.238;2022-08-03T04:43:20;18.20;99.90
736;DHT22;352;48.626;9.238;2022-08-03T04:45:48;18.20;99.90
736;DHT22;352;48.626;9.238;2022-08-03T04:50:46;18.10;99.90
736;DHT22;352;48.626;9.238;2022-08-03T05:25:09;18.90;99.90
736;DHT22;352;48.626;9.238;2022-08-03T05:30:03;19.00;99.90
736;DHT22;352;48.626;9.238;2022-08-03T05:42:20;20.10;99.90
736;DHT22;352;48.626;9.238;2022-08-03T05:59:31;21.90;99.90
736;DHT22;352;48.626;9.238;2022-08-03T06:16:41;23.20;99.90
736;DHT22;352;48.626;9.238;2022-08-03T06:31:24;24.20;99.90
736;DHT22;352;48.626;9.238;2022-08-03T06:33:55;24.40;99.90
736;DHT22;352;48.626;9.238;2022-08-03T06:51:06;25.50;99.90
736;DHT22;352;48.626;9.238;2022-08-03T07:08:17;26.50;98.50
736;DHT22;352;48.626;9.238;2022-08-03T07:25:28;27.70;96.60
736;DHT22;352;48.626;9.238;2022-08-03T07:42:39;28.70;95.50
736;DHT22;352;48.626;9.238;2022-08-03T07:45:07;28.90;92.50
736;DHT22;352;48.626;9.238;2022-08-03T07:55:14;29.80;92.00
736;DHT22;352;48.626;9.238;2022-08-03T07:57:42;29.80;92.00
736;DHT22;352;48.626;9.238;2022-08-03T08:00:13;29.80;92.00
736;DHT22;352;48.626;9.238;2022-08-03T08:10:03;30.50;89.70
736;DHT22;352;48.626;9.238;2022-08-03T08:14:58;30.60;88.00
736;DHT22;352;48.626;9.238;2022-08-03T08:32:09;31.90;81.10
736;DHT22;352;48.626;9.238;2022-08-03T08:46:54;32.70;77.00
736;DHT22;352;48.626;9.238;2022-08-03T08:49:25;32.80;75.50
736;DHT22;352;48.626;9.238;2022-08-03T08:51:54;33.00;77.30
736;DHT22;352;48.626;9.238;2022-08-03T08:56:50;33.10;73.70
736;DHT22;352;48.626;9.238;2022-08-03T09:06:40;33.60;72.10
736;DHT22;352;48.626;9.238;2022-08-03T09:11:34;33.60;93.70
736;DHT22;352;48.626;9.238;2022-08-03T09:19:10;34.30;64.40
736;DHT22;352;48.626;9.238;2022-08-03T09:21:38;34.50;96.40
736;DHT22;352;48.626;9.238;2022-08-03T09:24:06;34.70;98.90
736;DHT22;352;48.626;9.238;2022-08-03T09:26:34;34.90;64.70
736;DHT22;352;48.626;9.238;2022-08-03T09:29:03;35.00;97.10
736;DHT22;352;48.626;9.238;2022-08-03T09:31:32;35.10;95.30
736;DHT22;352;48.626;9.238;2022-08-03T09:34:05;35.00;66.90
736;DHT22;352;48.626;9.238;2022-08-03T09:36:40;35.20;61.50
736;DHT22;352;48.626;9.238;2022-08-03T09:39:09;35.60;94.20
736;DHT22;352;48.626;9.238;2022-08-03T09:41:38;35.80;93.60
736;DHT22;352;48.626;9.238;2022-08-03T09:46:46;36.10;57.50
736;DHT22;352;48.626;9.238;2022-08-03T09:51:41;36.50;91.80
736;DHT22;352;48.626;9.238;2022-08-03T09:54:09;36.40;56.60
736;DHT22;352;48.626;9.238;2022-08-03T09:56:43;36.40;57.00
736;DHT22;352;48.626;9.238;2022-08-03T09:59:11;36.80;59.10
736;DHT22;352;48.626;9.238;2022-08-03T10:04:11;37.00;54.40
736;DHT22;352;48.626;9.238;2022-08-03T10:09:09;37.20;56.90
736;DHT22;352;48.626;9.238;2022-08-03T10:11:37;37.30;53.60
736;DHT22;352;48.626;9.238;2022-08-03T10:14:07;37.30;54.90
736;DHT22;352;48.626;9.238;2022-08-03T10:16:35;37.30;55.80
736;DHT22;352;48.626;9.238;2022-08-03T10:19:04;37.30;53.70
736;DHT22;352;48.626;9.238;2022-08-03T10:21:32;37.20;84.80
736;DHT22;352;48.626;9.238;2022-08-03T10:24:02;37.30;55.20
736;DHT22;352;48.626;9.238;2022-08-03T10:26:32;37.40;89.70
736;DHT22;352;48.626;9.238;2022-08-03T10:29:02;37.50;57.00
736;DHT22;352;48.626;9.238;2022-08-03T10:31:34;37.70;56.50
736;DHT22;352;48.626;9.238;2022-08-03T10:34:01;38.00;57.30
736;DHT22;352;48.626;9.238;2022-08-03T10:36:30;38.10;54.80
736;DHT22;352;48.626;9.238;2022-08-03T10:38:59;37.80;86.80
736;DHT22;352;48.626;9.238;2022-08-03T10:41:38;37.70;53.80
736;DHT22;352;48.626;9.238;2022-08-03T10:44:08;38.00;80.20
736;DHT22;352;48.626;9.238;2022-08-03T10:46:37;38.00;77.80
736;DHT22;352;48.626;9.238;2022-08-03T10:49:05;38.00;52.20
736;DHT22;352;48.626;9.238;2022-08-03T10:51:32;38.00;51.40
736;DHT22;352;48.626;9.238;2022-08-03T10:54:00;37.70;50.70
736;DHT22;352;48.626;9.238;2022-08-03T10:56:40;37.60;49.30
736;DHT22;352;48.626;9.238;2022-08-03T10:59:56;37.60;50.40
736;DHT22;352;48.626;9.238;2022-08-03T11:03:07;37.40;51.90
736;DHT22;352;48.626;9.238;2022-08-03T11:05:37;37.50;54.10
736;DHT22;352;48.626;9.238;2022-08-03T11:08:34;37.30;53.30
736;DHT22;352;48.626;9.238;2022-08-03T11:11:23;37.10;52.70
736;DHT22;352;48.626;9.238;2022-08-03T11:14:05;36.20;75.40
736;DHT22;352;48.626;9.238;2022-08-03T11:16:34;36.10;49.60
736;DHT22;352;48.626;9.238;2022-08-03T11:19:02;35.70;50.50
736;DHT22;352;48.626;9.238;2022-08-03T11:21:51;35.70;50.70
736;DHT22;352;48.626;9.238;2022-08-03T11:27:32;35.60;50.90
736;DHT22;352;48.626;9.238;2022-08-03T11:30:03;35.50;52.10
736;DHT22;352;48.626;9.238;2022-08-03T11:32:53;35.40;51.40
736;DHT22;352;48.626;9.238;2022-08-03T11:35:23;35.30;53.20
736;DHT22;352;48.626;9.238;2022-08-03T11:38:05;35.30;51.10
736;DHT22;352;48.626;9.238;2022-08-03T11:40:35;35.10;52.10
736;DHT22;352;48.626;9.238;2022-08-03T11:43:04;35.00;51.80
736;DHT22;352;48.626;9.238;2022-08-03T11:45:32;35.00;52.50
736;DHT22;352;48.626;9.238;2022-08-03T11:48:12;35.00;54.20
736;DHT22;352;48.626;9.238;2022-08-03T11:50:39;35.00;56.20
736;DHT22;352;48.626;9.238;2022-08-03T11:53:13;35.10;54.50
736;DHT22;352;48.626;9.238;2022-08-03T11:55:40;35.10;51.80
736;DHT22;352;48.626;9.238;2022-08-03T11:58:15;35.00;52.90
736;DHT22;352;48.626;9.238;2022-08-03T12:00:43;34.80;52.70
736;DHT22;352;48.626;9.238;2022-08-03T12:03:12;34.80;53.20
736;DHT22;352;48.626;9.238;2022-08-03T12:05:50;34.60;53.60
736;DHT22;352;48.626;9.238;2022-08-03T12:08:30;34.20;76.70
736;DHT22;352;48.626;9.238;2022-08-03T12:10:58;34.30;57.20
736;DHT22;352;48.626;9.238;2022-08-03T12:13:25;34.40;56.00
736;DHT22;352;48.626;9.238;2022-08-03T12:15:55;34.50;55.00
736;DHT22;352;48.626;9.238;2022-08-03T12:18:22;34.60;55.10
736;DHT22;352;48.626;9.238;2022-08-03T12:20:51;34.50;54.60
736;DHT22;352;48.626;9.238;2022-08-03T12:23:19;34.50;54.70
736;DHT22;352;48.626;9.238;2022-08-03T12:25:46;34.60;55.80
736;DHT22;352;48.626;9.238;2022-08-03T12:28:16;34.50;54.90
736;DHT22;352;48.626;9.238;2022-08-03T12:30:45;34.40;54.80
736;DHT22;352;48.626;9.238;2022-08-03T12:33:18;34.40;55.70
736;DHT22;352;48.626;9.238;2022-08-03T12:35:59;34.30;56.20
736;DHT22;352;48.626;9.238;2022-08-03T12:38:29;34.30;54.80
736;DHT22;352;48.626;9.238;2022-08-03T12:41:00;34.10;53.80
736;DHT22;352;48.626;9.238;2022-08-03T12:43:27;34.00;55.30
736;DHT22;352;48.626;9.238;2022-08-03T12:46:09;33.80;54.20
736;DHT22;352;48.626;9.238;2022-08-03T12:49:00;33.70;54.80
736;DHT22;352;48.626;9.238;2022-08-03T12:51:28;33.70;54.30
736;DHT22;352;48.626;9.238;2022-08-03T12:53:56;33.60;58.40
736;DHT22;352;48.626;9.238;2022-08-03T12:56:23;33.50;58.80
736;DHT22;352;48.626;9.238;2022-08-03T13:01:19;33.60;56.80
736;DHT22;352;48.626;9.238;2022-08-03T13:03:50;33.60;58.60
736;DHT22;352;48.626;9.238;2022-08-03T13:06:20;33.60;57.10
736;DHT22;352;48.626;9.238;2022-08-03T13:11:20;33.50;56.90
736;DHT22;352;48.626;9.238;2022-08-03T13:13:47;33.50;55.70
736;DHT22;352;48.626;9.238;2022-08-03T13:16:14;33.50;56.80
736;DHT22;352;48.626;9.238;2022-08-03T13:18:40;33.40;58.80
736;DHT22;352;48.626;9.238;2022-08-03T13:21:07;33.40;57.90
736;DHT22;352;48.626;9.238;2022-08-03T13:23:35;33.40;58.30
736;DHT22;352;48.626;9.238;2022-08-03T13:26:02;33.30;57.60
736;DHT22;352;48.626;9.238;2022-08-03T13:28:29;33.30;57.40
736;DHT22;352;48.626;9.238;2022-08-03T13:30:56;33.30;57.20
736;DHT22;352;48.626;9.238;2022-08-03T13:33:23;33.30;56.50
736;DHT22;352;48.626;9.238;2022-08-03T13:38:16;33.10;55.80
736;DHT22;352;48.626;9.238;2022-08-03T13:40:45;33.10;55.70
736;DHT22;352;48.626;9.238;2022-08-03T13:43:11;33.10;57.60
736;DHT22;352;48.626;9.238;2022-08-03T13:45:38;33.10;57.10
736;DHT22;352;48.626;9.238;2022-08-03T13:48:05;33.10;55.60
736;DHT22;352;48.626;9.238;2022-08-03T13:50:32;33.00;55.80
736;DHT22;352;48.626;9.238;2022-08-03T13:52:59;32.90;56.00
736;DHT22;352;48.626;9.238;2022-08-03T13:55:26;32.90;56.00
736;DHT22;352;48.626;9.238;2022-08-03T13:57:54;32.90;55.40
736;DHT22;352;48.626;9.238;2022-08-03T14:00:20;32.80;56.60
736;DHT22;352;48.626;9.238;2022-08-03T14:02:50;32.80;56.00
736;DHT22;352;48.626;9.238;2022-08-03T14:05:17;32.80;54.60
736;DHT22;352;48.626;9.238;2022-08-03T14:07:44;32.70;53.90
736;DHT22;352;48.626;9.238;2022-08-03T14:12:40;32.60;55.10
736;DHT22;352;48.626;9.238;2022-08-03T14:15:09;32.60;55.40
736;DHT22;352;48.626;9.238;2022-08-03T14:17:37;32.70;56.90
736;DHT22;352;48.626;9.238;2022-08-03T14:20:05;32.70;57.70
736;DHT22;352;48.626;9.238;2022-08-03T14:22:32;32.70;55.30
736;DHT22;352;48.626;9.238;2022-08-03T14:24:59;32.70;55.20
736;DHT22;352;48.626;9.238;2022-08-03T14:29:53;32.60;54.50
736;DHT22;352;48.626;9.238;2022-08-03T14:32:25;32.50;56.10
736;DHT22;352;48.626;9.238;2022-08-03T14:34:52;32.60;56.70
736;DHT22;352;48.626;9.238;2022-08-03T14:37:19;32.60;56.50
736;DHT22;352;48.626;9.238;2022-08-03T14:42:13;32.60;55.00
736;DHT22;352;48.626;9.238;2022-08-03T14:47:08;32.60;55.50
736;DHT22;352;48.626;9.238;2022-08-03T14:49:36;32.50;55.60
736;DHT22;352;48.626;9.238;2022-08-03T14:52:03;32.50;54.20
736;DHT22;352;48.626;9.238;2022-08-03T14:54:30;32.40;56.30
736;DHT22;352;48.626;9.238;2022-08-03T14:56:57;32.40;55.90
736;DHT22;352;48.626;9.238;2022-08-03T14:59:24;32.40;55.70
736;DHT22;352;48.626;9.238;2022-08-03T15:01:51;32.40;76.70
736;DHT22;352;48.626;9.238;2022-08-03T15:04:18;32.40;56.30
736;DHT22;352;48.626;9.238;2022-08-03T15:06:46;32.30;54.70
736;DHT22;352;48.626;9.238;2022-08-03T15:09:13;32.30;54.20
736;DHT22;352;48.626;9.238;2022-08-03T15:11:40;32.10;70.70
736;DHT22;352;48.626;9.238;2022-08-03T15:14:06;32.20;55.00
736;DHT22;352;48.626;9.238;2022-08-03T15:16:33;32.20;53.60
736;DHT22;352;48.626;9.238;2022-08-03T15:19:00;32.10;53.80
736;DHT22;352;48.626;9.238;2022-08-03T15:21:27;32.10;54.30
736;DHT22;352;48.626;9.238;2022-08-03T15:23:55;32.10;54.50
736;DHT22;352;48.626;9.238;2022-08-03T15:26:21;32.10;54.60
736;DHT22;352;48.626;9.238;2022-08-03T15:28:48;32.10;54.80
736;DHT22;352;48.626;9.238;2022-08-03T15:31:20;32.00;54.80
736;DHT22;352;48.626;9.238;2022-08-03T15:33:46;32.10;55.30
736;DHT22;352;48.626;9.238;2022-08-03T15:36:14;32.00;54.10
736;DHT22;352;48.626;9.238;2022-08-03T15:41:09;32.00;54.80
736;DHT22;352;48.626;9.238;2022-08-03T15:43:36;32.00;55.40
736;DHT22;352;48.626;9.238;2022-08-03T15:46:03;32.00;55.00
736;DHT22;352;48.626;9.238;2022-08-03T15:48:30;32.10;55.40
736;DHT22;352;48.626;9.238;2022-08-03T15:50:57;32.00;54.70
736;DHT22;352;48.626;9.238;2022-08-03T15:53:23;32.00;55.70
736;DHT22;352;48.626;9.238;2022-08-03T15:55:50;32.00;54.40
736;DHT22;352;48.626;9.238;2022-08-03T15:58:18;32.00;55.60
736;DHT22;352;48.626;9.238;2022-08-03T16:00:45;31.90;56.50
736;DHT22;352;48.626;9.238;2022-08-03T16:03:12;31.80;57.40
736;DHT22;352;48.626;9.238;2022-08-03T16:05:39;31.80;62.60
736;DHT22;352;48.626;9.238;2022-08-03T16:08:05;31.70;59.20
736;DHT22;352;48.626;9.238;2022-08-03T16:10:32;31.70;59.80
736;DHT22;352;48.626;9.238;2022-08-03T16:12:59;31.60;56.80
736;DHT22;352;48.626;9.238;2022-08-03T16:15:27;31.60;61.00
736;DHT22;352;48.626;9.238;2022-08-03T16:17:53;31.50;59.70
736;DHT22;352;48.626;9.238;2022-08-03T16:20:20;31.50;58.50
736;DHT22;352;48.626;9.238;2022-08-03T16:22:47;31.50;57.80
736;DHT22;352;48.626;9.238;2022-08-03T16:25:15;31.50;58.60
736;DHT22;352;48.626;9.238;2022-08-03T16:27:43;31.50;58.10
736;DHT22;352;48.626;9.238;2022-08-03T16:30:11;31.50;58.00
736;DHT22;352;48.626;9.238;2022-08-03T16:32:41;31.30;62.70
736;DHT22;352;48.626;9.238;2022-08-03T16:35:09;31.30;90.00
736;DHT22;352;48.626;9.238;2022-08-03T16:37:36;31.20;60.50
736;DHT22;352;48.626;9.238;2022-08-03T16:40:05;31.10;94.20
736;DHT22;352;48.626;9.238;2022-08-03T16:42:33;31.00;71.20
736;DHT22;352;48.626;9.238;2022-08-03T16:45:00;30.80;81.20
736;DHT22;352;48.626;9.238;2022-08-03T16:47:27;30.80;62.80
736;DHT22;352;48.626;9.238;2022-08-03T16:49:55;30.80;61.90
736;DHT22;352;48.626;9.238;2022-08-03T16:52:22;30.80;91.10
736;DHT22;352;48.626;9.238;2022-08-03T16:54:49;31.30;84.00
736;DHT22;352;48.626;9.238;2022-08-03T16:57:16;31.60;91.80
736;DHT22;352;48.626;9.238;2022-08-03T16:59:43;30.80;64.10
736;DHT22;352;48.626;9.238;2022-08-03T17:02:18;30.80;59.10
736;DHT22;352;48.626;9.238;2022-08-03T17:04:45;30.80;59.90
736;DHT22;352;48.626;9.238;2022-08-03T17:07:14;30.80;65.70
736;DHT22;352;48.626;9.238;2022-08-03T17:09:41;30.70;64.10
736;DHT22;352;48.626;9.238;2022-08-03T17:12:08;30.60;71.00
736;DHT22;352;48.626;9.238;2022-08-03T17:14:35;30.60;68.20
736;DHT22;352;48.626;9.238;2022-08-03T17:17:03;30.40;67.30
736;DHT22;352;48.626;9.238;2022-08-03T17:19:34;30.80;81.70
736;DHT22;352;48.626;9.238;2022-08-03T17:22:09;30.40;92.90
736;DHT22;352;48.626;9.238;2022-08-03T17:24:39;30.40;62.60
736;DHT22;352;48.626;9.238;2022-08-03T17:27:12;30.40;61.10
736;DHT22;352;48.626;9.238;2022-08-03T17:29:40;30.40;62.50
736;DHT22;352;48.626;9.238;2022-08-03T17:32:10;30.30;72.80
736;DHT22;352;48.626;9.238;2022-08-03T17:34:37;30.10;66.80
736;DHT22;352;48.626;9.238;2022-08-03T17:37:08;30.10;75.00
736;DHT22;352;48.626;9.238;2022-08-03T17:39:38;29.90;68.80
736;DHT22;352;48.626;9.238;2022-08-03T17:42:07;29.80;76.80
736;DHT22;352;48.626;9.238;2022-08-03T17:44:34;29.80;71.60
736;DHT22;352;48.626;9.238;2022-08-03T17:47:01;29.80;73.70
736;DHT22;352;48.626;9.238;2022-08-03T17:49:27;29.60;81.10
736;DHT22;352;48.626;9.238;2022-08-03T17:51:56;29.50;72.50
736;DHT22;352;48.626;9.238;2022-08-03T17:54:24;29.50;68.40
736;DHT22;352;48.626;9.238;2022-08-03T17:57:04;29.50;76.50
736;DHT22;352;48.626;9.238;2022-08-03T17:59:36;29.40;72.50
736;DHT22;352;48.626;9.238;2022-08-03T18:02:21;29.40;77.80
736;DHT22;352;48.626;9.238;2022-08-03T18:05:12;29.20;78.50
736;DHT22;352;48.626;9.238;2022-08-03T18:07:42;29.10;81.80
736;DHT22;352;48.626;9.238;2022-08-03T18:10:15;29.00;80.70
736;DHT22;352;48.626;9.238;2022-08-03T18:12:52;28.80;79.70
736;DHT22;352;48.626;9.238;2022-08-03T18:15:25;28.80;76.50
736;DHT22;352;48.626;9.238;2022-08-03T18:17:55;28.80;72.40
736;DHT22;352;48.626;9.238;2022-08-03T18:20:25;28.90;72.80
736;DHT22;352;48.626;9.238;2022-08-03T18:22:52;29.00;96.00
736;DHT22;352;48.626;9.238;2022-08-03T18:25:20;28.50;95.00
736;DHT22;352;48.626;9.238;2022-08-03T18:27:49;28.80;96.20
736;DHT22;352;48.626;9.238;2022-08-03T18:30:17;29.00;94.40
736;DHT22;352;48.626;9.238;2022-08-03T18:32:44;28.70;89.20
736;DHT22;352;48.626;9.238;2022-08-03T18:35:11;28.50;93.80
736;DHT22;352;48.626;9.238;2022-08-03T18:37:38;28.60;94.90
736;DHT22;352;48.626;9.238;2022-08-03T18:40:10;28.60;78.10
736;DHT22;352;48.626;9.238;2022-08-03T18:42:37;28.50;81.00
736;DHT22;352;48.626;9.238;2022-08-03T18:45:06;28.40;80.10
736;DHT22;352;48.626;9.238;2022-08-03T18:47:48;28.40;77.80
736;DHT22;352;48.626;9.238;2022-08-03T18:50:18;28.30;82.10
736;DHT22;352;48.626;9.238;2022-08-03T18:52:54;28.10;80.50
736;DHT22;352;48.626;9.238;2022-08-03T18:55:26;28.00;79.40
736;DHT22;352;48.626;9.238;2022-08-03T18:58:00;27.90;79.50
736;DHT22;352;48.626;9.238;2022-08-03T19:00:32;27.90;79.50
736;DHT22;352;48.626;9.238;2022-08-03T19:03:00;27.80;82.70
736;DHT22;352;48.626;9.238;2022-08-03T19:05:30;27.70;81.90
736;DHT22;352;48.626;9.238;2022-08-03T19:08:01;27.60;83.20
736;DHT22;352;48.626;9.238;2022-08-03T19:10:30;27.60;82.50
736;DHT22;352;48.626;9.238;2022-08-03T19:13:02;27.50;81.20
736;DHT22;352;48.626;9.238;2022-08-03T19:15:32;27.50;85.60
736;DHT22;352;48.626;9.238;2022-08-03T19:18:02;27.40;84.00
736;DHT22;352;48.626;9.238;2022-08-03T19:20:29;27.30;85.40
736;DHT22;352;48.626;9.238;2022-08-03T19:22:57;27.30;84.60
736;DHT22;352;48.626;9.238;2022-08-03T19:25:25;27.20;86.30
736;DHT22;352;48.626;9.238;2022-08-03T19:27:53;27.20;87.10
736;DHT22;352;48.626;9.238;2022-08-03T19:30:20;27.10;87.80
736;DHT22;352;48.626;9.238;2022-08-03T19:33:06;27.00;87.50
736;DHT22;352;48.626;9.238;2022-08-03T19:38:01;26.90;88.00
736;DHT22;352;48.626;9.238;2022-08-03T19:40:32;26.90;88.60
736;DHT22;352;48.626;9.238;2022-08-03T19:42:59;26.80;89.50
736;DHT22;352;48.626;9.238;2022-08-03T19:45:31;26.40;99.90
736;DHT22;352;48.626;9.238;2022-08-03T19:48:05;26.70;89.20
736;DHT22;352;48.626;9.238;2022-08-03T19:50:34;26.50;99.90
736;DHT22;352;48.626;9.238;2022-08-03T19:53:03;26.50;90.60
736;DHT22;352;48.626;9.238;2022-08-03T19:55:33;26.50;91.10
736;DHT22;352;48.626;9.238;2022-08-03T19:58:02;26.40;90.40
736;DHT22;352;48.626;9.238;2022-08-03T20:05:25;26.20;92.80
736;DHT22;352;48.626;9.238;2022-08-03T20:22:41;25.90;93.00
736;DHT22;352;48.626;9.238;2022-08-03T20:25:10;25.80;93.20
736;DHT22;352;48.626;9.238;2022-08-03T20:27:43;25.80;93.70
736;DHT22;352;48.626;9.238;2022-08-03T20:30:11;25.80;94.00
736;DHT22;352;48.626;9.238;2022-08-03T20:40:02;25.50;94.30
736;DHT22;352;48.626;9.238;2022-08-03T20:47:25;25.50;94.70
736;DHT22;352;48.626;9.238;2022-08-03T20:49:53;25.40;94.90
736;DHT22;352;48.626;9.238;2022-08-03T20:57:15;25.30;94.80
736;DHT22;352;48.626;9.238;2022-08-03T20:59:50;25.20;94.90
736;DHT22;352;48.626;9.238;2022-08-03T21:02:21;25.20;95.00
736;DHT22;352;48.626;9.238;2022-08-03T21:07:18;25.10;95.80
736;DHT22;352;48.626;9.238;2022-08-03T21:09:50;24.90;95.90
736;DHT22;352;48.626;9.238;2022-08-03T21:12:25;24.90;96.30
736;DHT22;352;48.626;9.238;2022-08-03T21:14:58;24.80;96.80
736;DHT22;352;48.626;9.238;2022-08-03T21:17:29;24.80;96.60
736;DHT22;352;48.626;9.238;2022-08-03T21:19:57;24.70;96.50
736;DHT22;352;48.626;9.238;2022-08-03T21:22:28;24.70;95.60
736;DHT22;352;48.626;9.238;2022-08-03T21:27:28;24.70;95.40
736;DHT22;352;48.626;9.238;2022-08-03T21:29:57;24.70;95.40
736;DHT22;352;48.626;9.238;2022-08-03T21:34:53;24.60;95.50
736;DHT22;352;48.626;9.238;2022-08-03T21:37:22;24.60;95.60
736;DHT22;352;48.626;9.238;2022-08-03T21:39:51;24.50;96.00
736;DHT22;352;48.626;9.238;2022-08-03T21:44:49;24.50;96.10
736;DHT22;352;48.626;9.238;2022-08-03T21:47:17;24.50;96.10
736;DHT22;352;48.626;9.238;2022-08-03T21:49:47;24.40;96.20
736;DHT22;352;48.626;9.238;2022-08-03T21:54:42;24.40;96.60
736;DHT22;352;48.626;9.238;2022-08-03T21:57:16;24.30;96.70
736;DHT22;352;48.626;9.238;2022-08-03T21:59:50;24.20;97.00
736;DHT22;352;48.626;9.238;2022-08-03T22:02:18;25.20;97.60
736;DHT22;352;48.626;9.238;2022-08-03T22:07:14;24.00;98.10
736;DHT22;352;48.626;9.238;2022-08-03T22:17:05;23.90;98.60
736;DHT22;352;48.626;9.238;2022-08-03T22:24:29;23.70;98.20
736;DHT22;352;48.626;9.238;2022-08-03T22:26:58;23.70;99.10
736;DHT22;352;48.626;9.238;2022-08-03T22:32:11;23.50;99.90
736;DHT22;352;48.626;9.238;2022-08-03T22:34:41;23.30;99.90
736;DHT22;352;48.626;9.238;2022-08-03T22:42:04;23.10;99.90
736;DHT22;352;48.626;9.238;2022-08-03T22:49:27;23.10;99.90
736;DHT22;352;48.626;9.238;2022-08-03T22:51:55;23.60;99.90
736;DHT22;352;48.626;9.238;2022-08-03T22:56:51;23.00;99.90
736;DHT22;352;48.626;9.238;2022-08-03T23:01:46;22.90;99.90
736;DHT22;352;48.626;9.238;2022-08-03T23:04:19;22.90;99.90
736;DHT22;352;48.626;9.238;2022-08-03T23:07:02;22.90;99.90
736;DHT22;352;48.626;9.238;2022-08-03T23:11:59;22.90;99.90
736;DHT22;352;48.626;9.238;2022-08-03T23:14:28;22.90;99.90
736;DHT22;352;48.626;9.238;2022-08-03T23:16:59;22.80;99.90
736;DHT22;352;48.626;9.238;2022-08-03T23:21:55;22.80;99.90
736;DHT22;352;48.626;9.238;2022-08-03T23:24:24;22.80;99.90
736;DHT22;352;48.626;9.238;2022-08-03T23:26:52;22.80;99.90
736;DHT22;352;48.626;9.238;2022-08-03T23:29:19;22.80;99.90
736;DHT22;352;48.626;9.238;2022-08-03T23:31:48;22.80;99.90
736;DHT22;352;48.626;9.238;2022-08-03T23:34:16;22.70;99.90
736;DHT22;352;48.626;9.238;2022-08-03T23:39:29;22.70;99.90
736;DHT22;352;48.626;9.238;2022-08-03T23:44:29;22.60;99.90
736;DHT22;352;48.626;9.238;2022-08-03T23:51:56;22.50;99.90
736;DHT22;352;48.626;9.238;2022-08-03T23:54:39;22.50;99.90
736;DHT22;352;48.626;9.238;2022-08-03T23:57:13;22.50;99.90
736;DHT22;352;48.626;9.238;2022-08-03T23:59:48;22.40;99.90
